Ride Results

Great Western (25-06-2005)
Ride distance: 84.0 km

Outcomes - Great Western (25-06-2005)
Division No. of Entries Retired / DNE Completed Withdrawn Ineligible V/O Percentage Completed
HW 12 - 12 - - - 100.00%
MW 20 - 17 - - 3 85.00%
LW 11 - 8 - - 3 72.73%
JN 3 - 3 - - - 100.00%
Totals 46 - 40 - - 6 86.96%
Results - Great Western (25-06-2005)
No. Rider Horse Place Time Leg Speeds Total
Km/Hr
H/R bpm
Heavyweight
58r Sandy Horton Darjan Jeesabelle 1 4:28:00 20.6, 17.2 18.81 32, 41, 51 (Avg:46)
64r Brian Keep Robian Jedi 2 4:28:01 20.4, 17.3 18.80 37, 48, 44 (Avg:46)
61r Scott Jordan Brimgowers Beaumont 3 5:23:00 16.3, 14.9 15.60 32, 41, 40 (Avg:40)
60r Russell Robinson Pye Park Sabeen 4 6:20:00 13.6, 12.8 13.26 41, 51, 49 (Avg:50)
56r Brooke McMillan Aloha Glacier Bay 5 6:24:00 12.7, 13.4 13.13 26, 36, 42 (Avg:39)
57r Digger Leehane Shah 6 6:24:01 13.2, 12.9 13.12 34, 44, 40 (Avg:42)
65r Robert Punicki Zara Farm Shoman 7 6:42:00 14.4, 11.0 12.54 36, 40, 55 (Avg:47)
62r Lorraine Cubbin Jaharra Park Nureyev 8 7:19:00 11.5, 11.4 11.48 30, 37, 52 (Avg:44)
59r Geoffrey Jolly Clovelly Park Nikolas 8 7:19:00 11.5, 11.4 11.48 32, 40, 54 (Avg:47)
54r Laurie Stevens Satin 10 7:21:00 11.4, 11.4 11.43 40, 36, 43 (Avg:39)
55r Ken Bradley Phoenix Park Epona 11 7:25:00 13.2, 9.8 11.33 34, 44, 49 (Avg:46)
63r Gail Pattison Tabu 12 7:58:00 11.3, 9.8 10.54 36, 40, 48 (Avg:44)
Middleweight
67b Sheryl Herbert Just Tarquis 1 4:55:00 17.3, 16.7 17.08 27, 48, 44 (Avg:46)
68b Carole Van Poppel Ennerdale Opala 1 4:55:00 17.2, 16.9 17.08 31, 39, 41 (Avg:40)
71b Jo-Anne Francis Tynedale Ali Shamahn 3 5:23:01 16.3, 14.9 15.60 32, 37, 50 (Avg:43)
84b Meg Wade Castlebar Khalifa 4 5:24:00 15.0, 16.0 15.56 27, 39, 51 (Avg:45)
86b Asher Batty Magic Glenn Royal Blue 5 5:53:00 13.9, 14.5 14.28 38, 40, 47 (Avg:43)
80b Linda Tanian Castlebar Trubl Maker 5 5:53:00 13.9, 14.5 14.28 24, 33, 44 (Avg:38)
81b Jessica Dastani Benaur Tom Dooley 7 5:53:01 13.9, 14.5 14.28 29, 38, 46 (Avg:42)
83b Kate Jenour Magic Glenn Cut Loose 7 5:53:01 13.9, 14.5 14.28 37, 36, 40 (Avg:38)
77b Wendy Bootle Blue Bopp 9 6:01:00 15.3, 12.7 13.96 26, 42, 47 (Avg:44)
76b Louise McCormack Duo Park Ume 10 6:09:00 15.2, 12.3 13.66 36, 41, 44 (Avg:42)
85b Naomi McGaffin Castlebar Demon 11 6:23:00 12.9, 13.4 13.16 27, 40, 41 (Avg:40)
82b Kristie Taprell Castlebar Balik 11 6:23:00 12.9, 13.4 13.16 32, 37, 43 (Avg:40)
69b Sue Cavill Dalhope Kairo 13 7:13:00 12.1, 11.1 11.64 66, 49, 48 (Avg:48)
79b Lisa Johnston Duke 13 7:13:00 12.1, 11.1 11.64 33, 44, 49 (Avg:46)
70b Sharee Court Molly 15 7:19:00 11.2, 11.7 11.48 39, 45, 57 (Avg:51)
72b Jan Scholes Karumba Nipper 15 7:19:00 11.5, 11.4 11.48 38, 42, 41 (Avg:41)
74b Sally Stevens Booralie Fire N Light 17 7:21:00 13.2, 10.0 11.43 28, 46, 51 (Avg:48)
73b Shaun Bradley Sweet Mountain River Heart Rate L2 0:00:00 15.0, 11.3 - 33, 42, 65 (Avg:53)
78b Vanessa Smith Play the Ace Back L2 0:00:00 15.0, 11.3 - 36, 53, 58 (Avg:55)
75b Leanne Wyllie Dunbraeton Farah Heart Rate L2 0:00:00 13.4, 11.9 - 27, 46, 64 (Avg:55)
Lightweight
138w Jessica Remfry Ennerdale Meccano 1 4:55:00 17.3, 16.7 17.08 32, 35, 37 (Avg:36)
137w Rohan Stanes Kaysand Farrah 1 4:55:00 17.2, 16.9 17.08 32, 36, 39 (Avg:37)
131w Amily Daw Castlebar Kadeen 3 5:24:00 15.0, 16.0 15.56 34, 40, 43 (Avg:41)
140w Madelon Lane Jo Jo Jex 4 6:08:00 13.3, 14.0 13.70 30, 40, 46 (Avg:43)
141w Janeen Smith Taylorsglen Renegade 5 6:19:00 13.3, 13.2 13.30 35, 39, 43 (Avg:41)
142w Petre Pretorius Sandine Belcoo 6 6:35:00 12.5, 12.9 12.76 29, 34, 40 (Avg:37)
135w Lois Sharam Musical Gully Tambourine 7 6:38:00 13.4, 11.9 12.66 28, 38, 42 (Avg:40)
143w Brittnee Smith Syeda Simba 8 6:42:00 14.4, 11.0 12.54 33, 38, 50 (Avg:44)
134w Marie Gillett Radiums Rusty Lame L2 0:00:00 15.7, 12.0 - 40, 43, 47 (Avg:45)
139w Erin Reid Kaysand Mytai Lame L2 0:00:00 12.5, 12.9 - 32, 36, 52 (Avg:44)
136w Kristen Sagar River Heights Rahni Lame L2 0:00:00 20.4, 11.7 - 34, 45, 41 (Avg:43)
Junior
39y Tahnee Lee Musical Gully Serenade 1 6:16:00 13.4, 13.3 13.40 35, 40, 45 (Avg:42)
22y Hayley McArthur Edilia The Sheik 2 6:19:00 13.3, 13.2 13.30 33, 31, 38 (Avg:34)
27y Samantha Cubbin Clovelly Park Kimba 3 7:19:00 11.5, 11.4 11.48 29, 35, 39 (Avg:37)